sensor_id;sensor_type;location;lat;lon;timestamp;P1;durP1;ratioP1;P2;durP2;ratioP2
11504;SDS011;5809;53.262;10.408;2023-06-22T00:00:53;4.88;;;4.13;;
11504;SDS011;5809;53.262;10.408;2023-06-22T00:03:21;4.78;;;4.20;;
11504;SDS011;5809;53.262;10.408;2023-06-22T00:05:49;6.40;;;4.13;;
11504;SDS011;5809;53.262;10.408;2023-06-22T00:08:15;5.13;;;3.88;;
11504;SDS011;5809;53.262;10.408;2023-06-22T00:10:43;4.75;;;4.22;;
11504;SDS011;5809;53.262;10.408;2023-06-22T00:13:11;7.32;;;4.72;;
11504;SDS011;5809;53.262;10.408;2023-06-22T00:15:41;6.18;;;4.63;;
11504;SDS011;5809;53.262;10.408;2023-06-22T00:18:10;6.28;;;4.72;;
11504;SDS011;5809;53.262;10.408;2023-06-22T00:20:37;4.78;;;4.32;;
11504;SDS011;5809;53.262;10.408;2023-06-22T00:23:05;7.13;;;4.80;;
11504;SDS011;5809;53.262;10.408;2023-06-22T00:25:33;5.28;;;4.68;;
11504;SDS011;5809;53.262;10.408;2023-06-22T00:28:00;5.97;;;5.05;;
11504;SDS011;5809;53.262;10.408;2023-06-22T00:30:28;6.43;;;5.63;;
11504;SDS011;5809;53.262;10.408;2023-06-22T00:32:54;5.65;;;4.93;;
11504;SDS011;5809;53.262;10.408;2023-06-22T00:35:23;7.28;;;5.38;;
11504;SDS011;5809;53.262;10.408;2023-06-22T00:37:54;6.20;;;4.53;;
11504;SDS011;5809;53.262;10.408;2023-06-22T00:40:26;6.85;;;5.30;;
11504;SDS011;5809;53.262;10.408;2023-06-22T00:42:53;5.63;;;5.10;;
11504;SDS011;5809;53.262;10.408;2023-06-22T00:45:21;5.43;;;4.93;;
11504;SDS011;5809;53.262;10.408;2023-06-22T00:47:49;7.18;;;4.90;;
11504;SDS011;5809;53.262;10.408;2023-06-22T00:50:17;5.18;;;4.60;;
11504;SDS011;5809;53.262;10.408;2023-06-22T00:52:48;6.95;;;5.03;;
11504;SDS011;5809;53.262;10.408;2023-06-22T00:55:18;5.47;;;4.70;;
11504;SDS011;5809;53.262;10.408;2023-06-22T00:57:46;5.30;;;4.70;;
11504;SDS011;5809;53.262;10.408;2023-06-22T01:00:14;4.82;;;4.38;;
11504;SDS011;5809;53.262;10.408;2023-06-22T01:02:44;6.40;;;4.50;;
11504;SDS011;5809;53.262;10.408;2023-06-22T01:05:12;6.18;;;4.20;;
11504;SDS011;5809;53.262;10.408;2023-06-22T01:07:40;4.78;;;4.28;;
11504;SDS011;5809;53.262;10.408;2023-06-22T01:10:14;5.80;;;4.40;;
11504;SDS011;5809;53.262;10.408;2023-06-22T01:12:48;6.00;;;4.35;;
11504;SDS011;5809;53.262;10.408;2023-06-22T01:15:21;4.68;;;4.28;;
11504;SDS011;5809;53.262;10.408;2023-06-22T01:17:54;4.95;;;4.10;;
11504;SDS011;5809;53.262;10.408;2023-06-22T01:20:23;5.72;;;4.43;;
11504;SDS011;5809;53.262;10.408;2023-06-22T01:22:58;5.88;;;4.30;;
11504;SDS011;5809;53.262;10.408;2023-06-22T01:25:36;4.97;;;4.35;;
11504;SDS011;5809;53.262;10.408;2023-06-22T01:28:16;4.72;;;4.25;;
11504;SDS011;5809;53.262;10.408;2023-06-22T01:30:50;4.70;;;4.30;;
11504;SDS011;5809;53.262;10.408;2023-06-22T01:33:28;5.53;;;4.60;;
11504;SDS011;5809;53.262;10.408;2023-06-22T01:35:56;6.05;;;4.95;;
11504;SDS011;5809;53.262;10.408;2023-06-22T01:38:24;6.65;;;5.00;;
11504;SDS011;5809;53.262;10.408;2023-06-22T01:40:51;5.10;;;4.63;;
11504;SDS011;5809;53.262;10.408;2023-06-22T01:43:19;4.80;;;4.40;;
11504;SDS011;5809;53.262;10.408;2023-06-22T01:45:49;5.03;;;4.50;;
11504;SDS011;5809;53.262;10.408;2023-06-22T01:48:17;5.72;;;4.95;;
11504;SDS011;5809;53.262;10.408;2023-06-22T01:50:45;5.68;;;5.10;;
11504;SDS011;5809;53.262;10.408;2023-06-22T01:53:12;6.13;;;4.70;;
11504;SDS011;5809;53.262;10.408;2023-06-22T01:55:39;4.75;;;4.35;;
11504;SDS011;5809;53.262;10.408;2023-06-22T01:58:06;5.72;;;4.88;;
11504;SDS011;5809;53.262;10.408;2023-06-22T02:00:34;6.35;;;4.70;;
11504;SDS011;5809;53.262;10.408;2023-06-22T02:03:08;5.28;;;4.78;;
11504;SDS011;5809;53.262;10.408;2023-06-22T02:05:47;5.80;;;5.20;;
11504;SDS011;5809;53.262;10.408;2023-06-22T02:08:17;5.38;;;4.88;;
11504;SDS011;5809;53.262;10.408;2023-06-22T02:10:47;5.97;;;5.15;;
11504;SDS011;5809;53.262;10.408;2023-06-22T02:13:15;5.72;;;4.80;;
11504;SDS011;5809;53.262;10.408;2023-06-22T02:15:42;6.40;;;5.13;;
11504;SDS011;5809;53.262;10.408;2023-06-22T02:18:11;5.55;;;5.05;;
11504;SDS011;5809;53.262;10.408;2023-06-22T02:20:38;5.57;;;5.07;;
11504;SDS011;5809;53.262;10.408;2023-06-22T02:23:06;6.38;;;5.13;;
11504;SDS011;5809;53.262;10.408;2023-06-22T02:25:33;5.45;;;5.00;;
11504;SDS011;5809;53.262;10.408;2023-06-22T02:28:01;6.10;;;5.47;;
11504;SDS011;5809;53.262;10.408;2023-06-22T02:30:28;5.63;;;5.13;;
11504;SDS011;5809;53.262;10.408;2023-06-22T02:32:55;6.05;;;5.45;;
11504;SDS011;5809;53.262;10.408;2023-06-22T02:35:26;10.07;;;4.82;;
11504;SDS011;5809;53.262;10.408;2023-06-22T02:37:56;6.90;;;5.47;;
11504;SDS011;5809;53.262;10.408;2023-06-22T02:40:24;6.60;;;5.35;;
11504;SDS011;5809;53.262;10.408;2023-06-22T02:42:51;6.43;;;5.13;;
11504;SDS011;5809;53.262;10.408;2023-06-22T02:45:18;5.75;;;5.15;;
11504;SDS011;5809;53.262;10.408;2023-06-22T02:47:45;5.75;;;5.25;;
11504;SDS011;5809;53.262;10.408;2023-06-22T02:50:13;5.97;;;5.47;;
11504;SDS011;5809;53.262;10.408;2023-06-22T02:52:42;6.78;;;4.88;;
11504;SDS011;5809;53.262;10.408;2023-06-22T02:55:09;6.38;;;5.15;;
11504;SDS011;5809;53.262;10.408;2023-06-22T02:57:35;6.35;;;5.75;;
11504;SDS011;5809;53.262;10.408;2023-06-22T03:00:03;7.47;;;5.45;;
11504;SDS011;5809;53.262;10.408;2023-06-22T03:02:41;6.38;;;5.75;;
11504;SDS011;5809;53.262;10.408;2023-06-22T03:05:09;6.28;;;5.53;;
11504;SDS011;5809;53.262;10.408;2023-06-22T03:07:38;6.18;;;5.50;;
11504;SDS011;5809;53.262;10.408;2023-06-22T03:10:07;7.53;;;5.18;;
11504;SDS011;5809;53.262;10.408;2023-06-22T03:12:35;6.20;;;5.60;;
11504;SDS011;5809;53.262;10.408;2023-06-22T03:15:03;8.23;;;5.88;;
11504;SDS011;5809;53.262;10.408;2023-06-22T03:17:31;6.38;;;5.53;;
11504;SDS011;5809;53.262;10.408;2023-06-22T03:19:57;6.95;;;6.13;;
11504;SDS011;5809;53.262;10.408;2023-06-22T03:22:24;6.88;;;6.28;;
11504;SDS011;5809;53.262;10.408;2023-06-22T03:24:52;6.70;;;6.10;;
11504;SDS011;5809;53.262;10.408;2023-06-22T03:27:20;7.03;;;6.32;;
11504;SDS011;5809;53.262;10.408;2023-06-22T03:29:47;7.00;;;5.85;;
11504;SDS011;5809;53.262;10.408;2023-06-22T03:32:13;6.68;;;6.03;;
11504;SDS011;5809;53.262;10.408;2023-06-22T03:34:40;7.38;;;6.68;;
11504;SDS011;5809;53.262;10.408;2023-06-22T03:37:12;7.20;;;6.50;;
11504;SDS011;5809;53.262;10.408;2023-06-22T03:39:39;6.60;;;5.90;;
11504;SDS011;5809;53.262;10.408;2023-06-22T03:42:06;6.80;;;6.20;;
11504;SDS011;5809;53.262;10.408;2023-06-22T03:44:35;6.88;;;6.28;;
11504;SDS011;5809;53.262;10.408;2023-06-22T03:47:02;7.55;;;6.85;;
11504;SDS011;5809;53.262;10.408;2023-06-22T03:49:31;7.07;;;6.40;;
11504;SDS011;5809;53.262;10.408;2023-06-22T03:51:59;7.47;;;6.72;;
11504;SDS011;5809;53.262;10.408;2023-06-22T03:54:25;7.13;;;6.38;;
11504;SDS011;5809;53.262;10.408;2023-06-22T03:56:52;7.68;;;6.28;;
11504;SDS011;5809;53.262;10.408;2023-06-22T03:59:20;6.70;;;5.97;;
11504;SDS011;5809;53.262;10.408;2023-06-22T04:01:48;8.65;;;5.82;;
11504;SDS011;5809;53.262;10.408;2023-06-22T04:04:15;7.53;;;5.78;;
11504;SDS011;5809;53.262;10.408;2023-06-22T04:06:42;6.93;;;5.53;;
11504;SDS011;5809;53.262;10.408;2023-06-22T04:09:10;6.18;;;5.25;;
11504;SDS011;5809;53.262;10.408;2023-06-22T04:11:37;7.82;;;6.13;;
11504;SDS011;5809;53.262;10.408;2023-06-22T04:14:04;8.32;;;5.90;;
11504;SDS011;5809;53.262;10.408;2023-06-22T04:16:35;6.70;;;5.80;;
11504;SDS011;5809;53.262;10.408;2023-06-22T04:19:07;7.68;;;5.93;;
11504;SDS011;5809;53.262;10.408;2023-06-22T04:22:09;6.35;;;5.70;;
11504;SDS011;5809;53.262;10.408;2023-06-22T04:24:38;6.88;;;6.18;;
11504;SDS011;5809;53.262;10.408;2023-06-22T04:27:13;7.63;;;6.50;;
11504;SDS011;5809;53.262;10.408;2023-06-22T04:29:43;7.95;;;6.43;;
11504;SDS011;5809;53.262;10.408;2023-06-22T04:32:14;11.48;;;6.75;;
11504;SDS011;5809;53.262;10.408;2023-06-22T04:34:42;10.93;;;6.40;;
11504;SDS011;5809;53.262;10.408;2023-06-22T04:37:09;6.95;;;6.10;;
11504;SDS011;5809;53.262;10.408;2023-06-22T04:39:40;8.35;;;6.75;;
11504;SDS011;5809;53.262;10.408;2023-06-22T04:42:07;7.95;;;6.63;;
11504;SDS011;5809;53.262;10.408;2023-06-22T04:44:34;6.47;;;5.78;;
11504;SDS011;5809;53.262;10.408;2023-06-22T04:47:01;6.50;;;5.75;;
11504;SDS011;5809;53.262;10.408;2023-06-22T04:49:29;7.00;;;5.28;;
11504;SDS011;5809;53.262;10.408;2023-06-22T04:52:00;8.05;;;6.05;;
11504;SDS011;5809;53.262;10.408;2023-06-22T04:54:28;7.90;;;5.90;;
11504;SDS011;5809;53.262;10.408;2023-06-22T04:56:57;7.03;;;5.88;;
11504;SDS011;5809;53.262;10.408;2023-06-22T04:59:24;6.60;;;5.53;;
11504;SDS011;5809;53.262;10.408;2023-06-22T05:01:54;5.95;;;5.43;;
11504;SDS011;5809;53.262;10.408;2023-06-22T05:04:22;7.50;;;5.30;;
11504;SDS011;5809;53.262;10.408;2023-06-22T05:06:49;5.85;;;5.03;;
11504;SDS011;5809;53.262;10.408;2023-06-22T05:09:18;7.57;;;4.82;;
11504;SDS011;5809;53.262;10.408;2023-06-22T05:11:46;6.35;;;4.85;;
11504;SDS011;5809;53.262;10.408;2023-06-22T05:14:13;5.40;;;4.70;;
11504;SDS011;5809;53.262;10.408;2023-06-22T05:16:41;5.10;;;4.60;;
11504;SDS011;5809;53.262;10.408;2023-06-22T05:19:08;6.60;;;4.85;;
11504;SDS011;5809;53.262;10.408;2023-06-22T05:21:35;7.93;;;4.90;;
11504;SDS011;5809;53.262;10.408;2023-06-22T05:24:02;6.00;;;4.80;;
11504;SDS011;5809;53.262;10.408;2023-06-22T05:26:31;6.78;;;5.05;;
11504;SDS011;5809;53.262;10.408;2023-06-22T05:28:59;9.48;;;5.47;;
11504;SDS011;5809;53.262;10.408;2023-06-22T05:31:27;9.90;;;5.38;;
11504;SDS011;5809;53.262;10.408;2023-06-22T05:33:54;6.38;;;5.25;;
11504;SDS011;5809;53.262;10.408;2023-06-22T05:36:21;6.05;;;5.55;;
11504;SDS011;5809;53.262;10.408;2023-06-22T05:38:50;6.70;;;5.10;;
11504;SDS011;5809;53.262;10.408;2023-06-22T05:41:17;5.53;;;5.03;;
11504;SDS011;5809;53.262;10.408;2023-06-22T05:43:45;5.32;;;4.82;;
11504;SDS011;5809;53.262;10.408;2023-06-22T05:46:12;6.45;;;5.22;;
11504;SDS011;5809;53.262;10.408;2023-06-22T05:48:39;5.75;;;5.10;;
11504;SDS011;5809;53.262;10.408;2023-06-22T05:51:06;6.10;;;4.13;;
11504;SDS011;5809;53.262;10.408;2023-06-22T05:53:33;5.53;;;4.82;;
11504;SDS011;5809;53.262;10.408;2023-06-22T05:56:00;8.35;;;4.68;;
11504;SDS011;5809;53.262;10.408;2023-06-22T05:58:27;8.25;;;4.20;;
11504;SDS011;5809;53.262;10.408;2023-06-22T06:00:56;5.35;;;4.05;;
11504;SDS011;5809;53.262;10.408;2023-06-22T06:03:22;4.60;;;3.40;;
11504;SDS011;5809;53.262;10.408;2023-06-22T06:05:49;4.30;;;3.90;;
11504;SDS011;5809;53.262;10.408;2023-06-22T06:08:16;4.40;;;4.00;;
11504;SDS011;5809;53.262;10.408;2023-06-22T06:10:43;5.70;;;4.07;;
11504;SDS011;5809;53.262;10.408;2023-06-22T06:13:10;4.93;;;4.28;;
11504;SDS011;5809;53.262;10.408;2023-06-22T06:15:37;4.13;;;3.72;;
11504;SDS011;5809;53.262;10.408;2023-06-22T06:18:06;4.30;;;3.90;;
11504;SDS011;5809;53.262;10.408;2023-06-22T06:20:33;4.40;;;4.00;;
11504;SDS011;5809;53.262;10.408;2023-06-22T06:23:00;5.70;;;4.38;;
11504;SDS011;5809;53.262;10.408;2023-06-22T06:25:27;4.80;;;4.20;;
11504;SDS011;5809;53.262;10.408;2023-06-22T06:27:54;4.68;;;4.20;;
11504;SDS011;5809;53.262;10.408;2023-06-22T06:30:21;5.63;;;4.03;;
11504;SDS011;5809;53.262;10.408;2023-06-22T06:32:49;3.85;;;3.50;;
11504;SDS011;5809;53.262;10.408;2023-06-22T06:35:18;4.07;;;3.67;;
11504;SDS011;5809;53.262;10.408;2023-06-22T06:37:47;5.45;;;3.67;;
11504;SDS011;5809;53.262;10.408;2023-06-22T06:40:16;5.97;;;3.60;;
11504;SDS011;5809;53.262;10.408;2023-06-22T06:42:44;4.50;;;3.80;;
11504;SDS011;5809;53.262;10.408;2023-06-22T06:45:12;3.33;;;2.95;;
11504;SDS011;5809;53.262;10.408;2023-06-22T06:47:42;4.38;;;3.67;;
11504;SDS011;5809;53.262;10.408;2023-06-22T06:50:09;4.25;;;3.85;;
11504;SDS011;5809;53.262;10.408;2023-06-22T06:52:38;4.68;;;3.35;;
11504;SDS011;5809;53.262;10.408;2023-06-22T06:55:05;4.95;;;3.05;;
11504;SDS011;5809;53.262;10.408;2023-06-22T06:57:36;3.97;;;3.33;;
11504;SDS011;5809;53.262;10.408;2023-06-22T07:00:04;5.30;;;3.92;;
11504;SDS011;5809;53.262;10.408;2023-06-22T07:02:35;4.03;;;3.72;;
11504;SDS011;5809;53.262;10.408;2023-06-22T07:05:03;5.15;;;3.95;;
11504;SDS011;5809;53.262;10.408;2023-06-22T07:07:31;5.25;;;4.18;;
11504;SDS011;5809;53.262;10.408;2023-06-22T07:09:59;4.35;;;3.92;;
11504;SDS011;5809;53.262;10.408;2023-06-22T07:12:26;3.63;;;3.33;;
11504;SDS011;5809;53.262;10.408;2023-06-22T07:14:53;5.00;;;3.60;;
11504;SDS011;5809;53.262;10.408;2023-06-22T07:17:20;7.68;;;3.78;;
11504;SDS011;5809;53.262;10.408;2023-06-22T07:19:46;4.18;;;3.75;;
11504;SDS011;5809;53.262;10.408;2023-06-22T07:22:14;3.30;;;3.00;;
11504;SDS011;5809;53.262;10.408;2023-06-22T07:24:40;5.18;;;3.78;;
11504;SDS011;5809;53.262;10.408;2023-06-22T07:27:09;4.38;;;3.47;;
11504;SDS011;5809;53.262;10.408;2023-06-22T07:29:37;5.70;;;4.43;;
11504;SDS011;5809;53.262;10.408;2023-06-22T07:32:05;4.65;;;3.30;;
11504;SDS011;5809;53.262;10.408;2023-06-22T07:34:33;4.95;;;3.47;;
11504;SDS011;5809;53.262;10.408;2023-06-22T07:37:00;4.75;;;3.35;;
11504;SDS011;5809;53.262;10.408;2023-06-22T07:39:27;6.03;;;3.40;;
11504;SDS011;5809;53.262;10.408;2023-06-22T07:41:54;4.75;;;3.55;;
11504;SDS011;5809;53.262;10.408;2023-06-22T07:44:22;3.50;;;3.08;;
11504;SDS011;5809;53.262;10.408;2023-06-22T07:46:49;4.18;;;3.67;;
11504;SDS011;5809;53.262;10.408;2023-06-22T07:49:16;7.32;;;3.50;;
11504;SDS011;5809;53.262;10.408;2023-06-22T07:51:43;4.55;;;3.00;;
11504;SDS011;5809;53.262;10.408;2023-06-22T07:54:10;3.33;;;3.03;;
11504;SDS011;5809;53.262;10.408;2023-06-22T07:56:37;5.63;;;3.50;;
11504;SDS011;5809;53.262;10.408;2023-06-22T07:59:04;3.50;;;3.20;;
11504;SDS011;5809;53.262;10.408;2023-06-22T08:01:34;3.63;;;3.33;;
11504;SDS011;5809;53.262;10.408;2023-06-22T08:04:01;4.30;;;3.40;;
11504;SDS011;5809;53.262;10.408;2023-06-22T08:06:31;5.78;;;3.35;;
11504;SDS011;5809;53.262;10.408;2023-06-22T08:08:59;3.83;;;3.22;;
11504;SDS011;5809;53.262;10.408;2023-06-22T08:11:35;3.65;;;2.85;;
11504;SDS011;5809;53.262;10.408;2023-06-22T08:14:02;4.25;;;3.25;;
11504;SDS011;5809;53.262;10.408;2023-06-22T08:16:30;3.33;;;3.00;;
11504;SDS011;5809;53.262;10.408;2023-06-22T08:18:58;4.75;;;3.10;;
11504;SDS011;5809;53.262;10.408;2023-06-22T08:21:25;5.38;;;3.65;;
11504;SDS011;5809;53.262;10.408;2023-06-22T08:23:53;4.20;;;3.80;;
11504;SDS011;5809;53.262;10.408;2023-06-22T08:26:25;4.57;;;3.53;;
11504;SDS011;5809;53.262;10.408;2023-06-22T08:28:55;5.32;;;3.20;;
11504;SDS011;5809;53.262;10.408;2023-06-22T08:31:23;4.72;;;3.30;;
11504;SDS011;5809;53.262;10.408;2023-06-22T08:33:54;4.20;;;3.80;;
11504;SDS011;5809;53.262;10.408;2023-06-22T08:36:24;3.30;;;3.00;;
11504;SDS011;5809;53.262;10.408;2023-06-22T08:38:54;3.85;;;3.30;;
11504;SDS011;5809;53.262;10.408;2023-06-22T08:41:22;6.20;;;3.78;;
11504;SDS011;5809;53.262;10.408;2023-06-22T08:43:50;4.65;;;3.83;;
11504;SDS011;5809;53.262;10.408;2023-06-22T08:46:17;3.97;;;3.50;;
11504;SDS011;5809;53.262;10.408;2023-06-22T08:48:48;4.68;;;3.40;;
11504;SDS011;5809;53.262;10.408;2023-06-22T08:51:15;5.60;;;3.53;;
11504;SDS011;5809;53.262;10.408;2023-06-22T08:53:44;4.55;;;3.42;;
11504;SDS011;5809;53.262;10.408;2023-06-22T08:56:11;3.28;;;2.97;;
11504;SDS011;5809;53.262;10.408;2023-06-22T08:58:37;3.45;;;2.95;;
11504;SDS011;5809;53.262;10.408;2023-06-22T09:01:04;3.65;;;3.30;;
11504;SDS011;5809;53.262;10.408;2023-06-22T09:03:31;4.00;;;3.53;;
11504;SDS011;5809;53.262;10.408;2023-06-22T09:06:01;4.22;;;3.17;;
11504;SDS011;5809;53.262;10.408;2023-06-22T09:08:28;5.18;;;3.67;;
11504;SDS011;5809;53.262;10.408;2023-06-22T09:10:56;3.53;;;3.22;;
11504;SDS011;5809;53.262;10.408;2023-06-22T09:13:23;3.35;;;3.05;;
11504;SDS011;5809;53.262;10.408;2023-06-22T09:15:50;7.43;;;3.97;;
11504;SDS011;5809;53.262;10.408;2023-06-22T09:18:17;4.43;;;3.50;;
11504;SDS011;5809;53.262;10.408;2023-06-22T09:20:44;3.83;;;3.22;;
11504;SDS011;5809;53.262;10.408;2023-06-22T09:23:11;4.30;;;3.15;;
11504;SDS011;5809;53.262;10.408;2023-06-22T09:25:39;3.47;;;3.15;;
11504;SDS011;5809;53.262;10.408;2023-06-22T09:28:08;5.13;;;3.45;;
11504;SDS011;5809;53.262;10.408;2023-06-22T09:30:35;5.82;;;2.92;;
11504;SDS011;5809;53.262;10.408;2023-06-22T09:33:01;3.80;;;3.17;;
11504;SDS011;5809;53.262;10.408;2023-06-22T09:35:28;3.30;;;3.00;;
11504;SDS011;5809;53.262;10.408;2023-06-22T09:37:55;3.60;;;3.30;;
11504;SDS011;5809;53.262;10.408;2023-06-22T09:40:22;3.22;;;2.92;;
11504;SDS011;5809;53.262;10.408;2023-06-22T09:42:49;3.97;;;3.33;;
11504;SDS011;5809;53.262;10.408;2023-06-22T09:45:17;3.55;;;2.83;;
11504;SDS011;5809;53.262;10.408;2023-06-22T09:47:44;3.85;;;3.55;;
11504;SDS011;5809;53.262;10.408;2023-06-22T09:50:10;3.55;;;3.10;;
11504;SDS011;5809;53.262;10.408;2023-06-22T09:52:37;3.38;;;3.08;;
11504;SDS011;5809;53.262;10.408;2023-06-22T09:55:04;3.60;;;3.20;;
11504;SDS011;5809;53.262;10.408;2023-06-22T09:57:32;3.40;;;3.10;;
11504;SDS011;5809;53.262;10.408;2023-06-22T09:59:58;4.10;;;2.75;;
11504;SDS011;5809;53.262;10.408;2023-06-22T10:02:27;5.55;;;2.90;;
11504;SDS011;5809;53.262;10.408;2023-06-22T10:04:54;4.50;;;3.83;;
11504;SDS011;5809;53.262;10.408;2023-06-22T10:07:21;4.65;;;3.10;;
11504;SDS011;5809;53.262;10.408;2023-06-22T10:09:48;3.55;;;3.20;;
11504;SDS011;5809;53.262;10.408;2023-06-22T10:12:15;4.57;;;3.58;;
11504;SDS011;5809;53.262;10.408;2023-06-22T10:14:41;4.88;;;3.30;;
11504;SDS011;5809;53.262;10.408;2023-06-22T10:17:08;4.43;;;3.58;;
11504;SDS011;5809;53.262;10.408;2023-06-22T10:19:36;4.57;;;3.75;;
11504;SDS011;5809;53.262;10.408;2023-06-22T10:22:04;4.85;;;3.67;;
11504;SDS011;5809;53.262;10.408;2023-06-22T10:24:31;4.32;;;3.92;;
11504;SDS011;5809;53.262;10.408;2023-06-22T10:26:58;3.70;;;3.40;;
11504;SDS011;5809;53.262;10.408;2023-06-22T10:29:25;4.18;;;3.80;;
11504;SDS011;5809;53.262;10.408;2023-06-22T10:31:52;4.03;;;3.72;;
11504;SDS011;5809;53.262;10.408;2023-06-22T10:34:19;3.85;;;3.50;;
11504;SDS011;5809;53.262;10.408;2023-06-22T10:36:47;4.07;;;3.38;;
11504;SDS011;5809;53.262;10.408;2023-06-22T10:39:14;6.00;;;3.70;;
11504;SDS011;5809;53.262;10.408;2023-06-22T10:41:41;4.28;;;3.78;;
11504;SDS011;5809;53.262;10.408;2023-06-22T10:44:08;4.10;;;3.63;;
11504;SDS011;5809;53.262;10.408;2023-06-22T10:46:35;3.70;;;3.35;;
11504;SDS011;5809;53.262;10.408;2023-06-22T10:49:01;3.38;;;3.10;;
11504;SDS011;5809;53.262;10.408;2023-06-22T10:51:28;3.65;;;3.30;;
11504;SDS011;5809;53.262;10.408;2023-06-22T10:53:57;3.67;;;3.38;;
11504;SDS011;5809;53.262;10.408;2023-06-22T10:56:24;5.38;;;3.28;;
11504;SDS011;5809;53.262;10.408;2023-06-22T10:58:51;3.80;;;3.50;;
11504;SDS011;5809;53.262;10.408;2023-06-22T11:01:18;5.55;;;3.83;;
11504;SDS011;5809;53.262;10.408;2023-06-22T11:03:46;4.10;;;3.70;;
11504;SDS011;5809;53.262;10.408;2023-06-22T11:06:13;4.18;;;3.60;;
11504;SDS011;5809;53.262;10.408;2023-06-22T11:08:43;4.32;;;3.83;;
11504;SDS011;5809;53.262;10.408;2023-06-22T11:11:11;5.05;;;4.53;;
11504;SDS011;5809;53.262;10.408;2023-06-22T11:13:38;4.60;;;4.10;;
11504;SDS011;5809;53.262;10.408;2023-06-22T11:16:05;4.68;;;4.28;;
11504;SDS011;5809;53.262;10.408;2023-06-22T11:18:32;6.75;;;4.55;;
11504;SDS011;5809;53.262;10.408;2023-06-22T11:20:59;5.43;;;4.90;;
11504;SDS011;5809;53.262;10.408;2023-06-22T11:23:26;4.57;;;4.18;;
11504;SDS011;5809;53.262;10.408;2023-06-22T11:25:53;4.72;;;4.15;;
11504;SDS011;5809;53.262;10.408;2023-06-22T11:28:21;4.47;;;3.83;;
11504;SDS011;5809;53.262;10.408;2023-06-22T11:30:48;5.25;;;3.90;;
11504;SDS011;5809;53.262;10.408;2023-06-22T11:33:15;4.45;;;4.05;;
11504;SDS011;5809;53.262;10.408;2023-06-22T11:35:42;5.53;;;4.80;;
11504;SDS011;5809;53.262;10.408;2023-06-22T11:38:09;5.03;;;4.50;;
11504;SDS011;5809;53.262;10.408;2023-06-22T11:40:35;6.72;;;5.05;;
11504;SDS011;5809;53.262;10.408;2023-06-22T11:43:02;8.27;;;7.50;;
11504;SDS011;5809;53.262;10.408;2023-06-22T11:45:30;4.40;;;4.03;;
11504;SDS011;5809;53.262;10.408;2023-06-22T11:47:57;5.00;;;4.38;;
11504;SDS011;5809;53.262;10.408;2023-06-22T11:50:24;5.78;;;4.65;;
11504;SDS011;5809;53.262;10.408;2023-06-22T11:52:51;4.20;;;3.90;;
11504;SDS011;5809;53.262;10.408;2023-06-22T11:55:18;6.53;;;4.70;;
11504;SDS011;5809;53.262;10.408;2023-06-22T11:57:53;5.07;;;4.50;;
11504;SDS011;5809;53.262;10.408;2023-06-22T12:00:21;4.55;;;4.25;;
11504;SDS011;5809;53.262;10.408;2023-06-22T12:02:50;4.47;;;3.70;;
11504;SDS011;5809;53.262;10.408;2023-06-22T12:05:17;4.95;;;4.40;;
11504;SDS011;5809;53.262;10.408;2023-06-22T12:07:45;7.00;;;5.45;;
11504;SDS011;5809;53.262;10.408;2023-06-22T12:10:12;5.20;;;4.80;;
11504;SDS011;5809;53.262;10.408;2023-06-22T12:12:39;5.70;;;5.25;;
11504;SDS011;5809;53.262;10.408;2023-06-22T12:15:06;5.88;;;5.38;;
11504;SDS011;5809;53.262;10.408;2023-06-22T12:17:33;6.30;;;4.43;;
11504;SDS011;5809;53.262;10.408;2023-06-22T12:20:02;5.00;;;4.60;;
11504;SDS011;5809;53.262;10.408;2023-06-22T12:22:30;5.65;;;4.68;;
11504;SDS011;5809;53.262;10.408;2023-06-22T12:24:57;10.02;;;5.18;;
11504;SDS011;5809;53.262;10.408;2023-06-22T12:27:24;7.07;;;4.70;;
11504;SDS011;5809;53.262;10.408;2023-06-22T12:29:51;5.13;;;4.45;;
11504;SDS011;5809;53.262;10.408;2023-06-22T12:32:18;4.88;;;4.40;;
11504;SDS011;5809;53.262;10.408;2023-06-22T12:34:45;5.90;;;4.70;;
11504;SDS011;5809;53.262;10.408;2023-06-22T12:37:13;5.60;;;5.10;;
11504;SDS011;5809;53.262;10.408;2023-06-22T12:39:40;5.90;;;4.65;;
11504;SDS011;5809;53.262;10.408;2023-06-22T12:42:08;6.38;;;5.72;;
11504;SDS011;5809;53.262;10.408;2023-06-22T12:44:37;5.22;;;4.82;;
11504;SDS011;5809;53.262;10.408;2023-06-22T12:47:05;5.68;;;5.18;;
11504;SDS011;5809;53.262;10.408;2023-06-22T12:49:33;5.32;;;4.82;;
11504;SDS011;5809;53.262;10.408;2023-06-22T12:52:00;4.82;;;4.45;;
11504;SDS011;5809;53.262;10.408;2023-06-22T12:54:28;5.18;;;4.68;;
11504;SDS011;5809;53.262;10.408;2023-06-22T12:56:55;5.60;;;4.63;;
11504;SDS011;5809;53.262;10.408;2023-06-22T12:59:22;5.13;;;4.60;;
11504;SDS011;5809;53.262;10.408;2023-06-22T13:01:49;5.78;;;4.63;;
11504;SDS011;5809;53.262;10.408;2023-06-22T13:04:16;6.18;;;4.78;;
11504;SDS011;5809;53.262;10.408;2023-06-22T13:06:43;5.05;;;4.65;;
11504;SDS011;5809;53.262;10.408;2023-06-22T13:09:12;7.47;;;4.82;;
11504;SDS011;5809;53.262;10.408;2023-06-22T13:11:41;4.95;;;4.47;;
11504;SDS011;5809;53.262;10.408;2023-06-22T13:14:08;5.78;;;5.18;;
11504;SDS011;5809;53.262;10.408;2023-06-22T13:16:35;7.43;;;5.38;;
11504;SDS011;5809;53.262;10.408;2023-06-22T13:19:02;5.50;;;5.00;;
11504;SDS011;5809;53.262;10.408;2023-06-22T13:21:29;5.88;;;5.15;;
11504;SDS011;5809;53.262;10.408;2023-06-22T13:23:56;7.38;;;5.00;;
11504;SDS011;5809;53.262;10.408;2023-06-22T13:26:24;5.70;;;5.20;;
11504;SDS011;5809;53.262;10.408;2023-06-22T13:28:53;5.53;;;5.00;;
11504;SDS011;5809;53.262;10.408;2023-06-22T13:31:20;5.95;;;4.80;;
11504;SDS011;5809;53.262;10.408;2023-06-22T13:33:47;5.53;;;5.10;;
11504;SDS011;5809;53.262;10.408;2023-06-22T13:36:17;7.10;;;5.30;;
11504;SDS011;5809;53.262;10.408;2023-06-22T13:38:44;5.95;;;5.35;;
11504;SDS011;5809;53.262;10.408;2023-06-22T13:41:12;5.72;;;5.25;;
11504;SDS011;5809;53.262;10.408;2023-06-22T13:43:39;6.03;;;5.43;;
11504;SDS011;5809;53.262;10.408;2023-06-22T13:46:07;6.05;;;5.13;;
11504;SDS011;5809;53.262;10.408;2023-06-22T13:48:34;6.13;;;5.53;;
11504;SDS011;5809;53.262;10.408;2023-06-22T13:51:01;6.10;;;5.60;;
11504;SDS011;5809;53.262;10.408;2023-06-22T13:53:28;7.20;;;5.00;;
11504;SDS011;5809;53.262;10.408;2023-06-22T13:55:55;6.97;;;5.00;;
11504;SDS011;5809;53.262;10.408;2023-06-22T13:58:23;5.88;;;5.13;;
11504;SDS011;5809;53.262;10.408;2023-06-22T14:00:50;5.90;;;5.40;;
11504;SDS011;5809;53.262;10.408;2023-06-22T14:03:18;5.45;;;4.82;;
11504;SDS011;5809;53.262;10.408;2023-06-22T14:05:46;5.95;;;5.05;;
11504;SDS011;5809;53.262;10.408;2023-06-22T14:08:13;5.97;;;5.38;;
11504;SDS011;5809;53.262;10.408;2023-06-22T14:10:40;6.05;;;5.45;;
11504;SDS011;5809;53.262;10.408;2023-06-22T14:13:07;7.88;;;5.15;;
11504;SDS011;5809;53.262;10.408;2023-06-22T14:15:34;6.55;;;5.53;;
11504;SDS011;5809;53.262;10.408;2023-06-22T14:18:01;5.82;;;5.30;;
11504;SDS011;5809;53.262;10.408;2023-06-22T14:20:29;5.72;;;5.22;;
11504;SDS011;5809;53.262;10.408;2023-06-22T14:22:56;5.53;;;5.10;;
11504;SDS011;5809;53.262;10.408;2023-06-22T14:25:23;6.00;;;5.35;;
11504;SDS011;5809;53.262;10.408;2023-06-22T14:27:50;6.28;;;5.38;;
11504;SDS011;5809;53.262;10.408;2023-06-22T14:30:17;6.03;;;5.53;;
11504;SDS011;5809;53.262;10.408;2023-06-22T14:32:44;5.90;;;5.30;;
11504;SDS011;5809;53.262;10.408;2023-06-22T14:35:11;5.82;;;5.32;;
11504;SDS011;5809;53.262;10.408;2023-06-22T14:37:40;7.72;;;5.45;;
11504;SDS011;5809;53.262;10.408;2023-06-22T14:40:07;10.02;;;6.35;;
11504;SDS011;5809;53.262;10.408;2023-06-22T14:42:34;6.22;;;5.63;;
11504;SDS011;5809;53.262;10.408;2023-06-22T14:45:01;6.60;;;6.00;;
11504;SDS011;5809;53.262;10.408;2023-06-22T14:47:28;6.53;;;5.78;;
11504;SDS011;5809;53.262;10.408;2023-06-22T14:49:55;8.45;;;5.93;;
11504;SDS011;5809;53.262;10.408;2023-06-22T14:52:23;5.70;;;5.20;;